createdAt,value
2019-02-06T00:01:12.287Z,5.47
2019-02-06T00:03:41.051Z,6.37
2019-02-06T00:06:10.150Z,6.33
2019-02-06T00:08:39.041Z,5.43
2019-02-06T00:11:07.782Z,6.60
2019-02-06T00:13:36.472Z,6.60
2019-02-06T00:16:05.704Z,5.97
2019-02-06T00:18:34.506Z,5.77
2019-02-06T00:21:03.207Z,5.93
2019-02-06T00:23:31.886Z,5.63
2019-02-06T00:26:00.545Z,5.23
2019-02-06T00:28:29.727Z,6.30
2019-02-06T00:30:58.523Z,5.87
2019-02-06T00:33:27.226Z,6.93
2019-02-06T00:35:55.853Z,7.30
2019-02-06T00:38:24.810Z,6.67
2019-02-06T00:40:53.467Z,6.13
2019-02-06T00:43:22.220Z,5.73
2019-02-06T00:45:51.184Z,5.93
2019-02-06T00:48:19.847Z,7.53
2019-02-06T00:50:48.568Z,9.03
2019-02-06T00:53:17.247Z,9.37
2019-02-06T00:55:45.965Z,10.07
2019-02-06T00:58:14.632Z,9.90
2019-02-06T01:00:43.799Z,9.47
2019-02-06T01:03:12.765Z,9.17
2019-02-06T01:05:41.469Z,9.43
2019-02-06T01:08:10.141Z,9.70
2019-02-06T01:10:38.816Z,8.77
2019-02-06T01:13:07.492Z,8.77
2019-02-06T01:15:36.261Z,8.63
2019-02-06T01:18:05.661Z,7.67
2019-02-06T01:20:34.521Z,7.77
2019-02-06T01:23:03.276Z,7.13
2019-02-06T01:25:31.985Z,6.67
2019-02-06T01:28:00.664Z,7.37
2019-02-06T01:30:30.896Z,7.20
2019-02-06T01:32:59.985Z,7.50
2019-02-06T01:35:28.654Z,7.47
2019-02-06T01:37:57.421Z,6.97
2019-02-06T01:40:26.209Z,6.60
2019-02-06T01:42:54.841Z,5.27
2019-02-06T01:45:23.724Z,6.60
2019-02-06T01:47:52.603Z,6.17
2019-02-06T01:50:21.516Z,5.53
2019-02-06T01:52:50.164Z,5.20
2019-02-06T01:55:18.887Z,5.93
2019-02-06T01:57:47.560Z,4.53
2019-02-06T02:00:18.889Z,5.10
2019-02-06T02:02:47.540Z,4.30
2019-02-06T02:05:21.816Z,4.13
2019-02-06T02:07:51.769Z,3.70
2019-02-06T02:10:21.539Z,3.40
2019-02-06T02:12:50.541Z,3.60
2019-02-06T02:15:20.316Z,4.03
2019-02-06T02:17:49.483Z,4.20
2019-02-06T02:20:23.479Z,3.63
2019-02-06T02:22:52.351Z,3.93
2019-02-06T02:25:21.404Z,3.63
2019-02-06T02:27:50.084Z,3.60
2019-02-06T02:30:26.154Z,3.67
2019-02-06T02:32:54.816Z,3.67
2019-02-06T02:35:23.596Z,4.17
2019-02-06T02:37:52.317Z,3.77
2019-02-06T02:40:21.115Z,3.47
2019-02-06T02:42:49.794Z,3.60
2019-02-06T02:45:19.398Z,3.20
2019-02-06T02:47:48.481Z,3.80
2019-02-06T02:50:17.133Z,3.60
2019-02-06T02:52:45.856Z,3.57
2019-02-06T02:55:15.666Z,3.50
2019-02-06T02:57:44.449Z,3.80
2019-02-06T03:00:17.052Z,3.73
2019-02-06T03:02:47.864Z,3.70
2019-02-06T03:05:17.233Z,3.40
2019-02-06T03:07:45.989Z,3.93
2019-02-06T03:10:14.968Z,3.67
2019-02-06T03:12:43.722Z,4.13
2019-02-06T03:15:12.796Z,3.47
2019-02-06T03:17:41.932Z,3.90
2019-02-06T03:20:13.100Z,3.67
2019-02-06T03:22:41.859Z,3.50
2019-02-06T03:25:14.821Z,3.60
2019-02-06T03:27:43.488Z,3.17
2019-02-06T03:30:15.225Z,2.70
2019-02-06T03:32:43.863Z,3.10
2019-02-06T03:35:13.013Z,2.73
2019-02-06T03:37:41.671Z,3.30
2019-02-06T03:40:16.815Z,2.90
2019-02-06T03:42:45.471Z,3.17
2019-02-06T03:45:15.727Z,3.07
2019-02-06T03:47:44.386Z,2.80
2019-02-06T03:50:18.825Z,3.00
2019-02-06T03:52:47.660Z,3.30
2019-02-06T03:55:16.932Z,2.67
2019-02-06T03:57:45.797Z,2.73
2019-02-06T04:00:17.675Z,2.80
2019-02-06T04:02:46.368Z,2.67
2019-02-06T04:05:15.650Z,2.60
2019-02-06T04:07:44.400Z,2.90
2019-02-06T04:10:20.389Z,2.83
2019-02-06T04:12:49.134Z,2.70
2019-02-06T04:15:18.076Z,2.67
2019-02-06T04:17:46.799Z,3.00
2019-02-06T04:20:16.758Z,3.23
2019-02-06T04:22:45.422Z,2.93
2019-02-06T04:25:16.061Z,3.00
2019-02-06T04:27:44.895Z,2.50
2019-02-06T04:30:16.741Z,2.83
2019-02-06T04:32:45.644Z,3.10
2019-02-06T04:35:15.353Z,2.70
2019-02-06T04:37:44.183Z,3.47
2019-02-06T04:40:15.779Z,3.53
2019-02-06T04:42:44.544Z,4.07
2019-02-06T04:45:16.111Z,4.03
2019-02-06T04:47:44.885Z,4.20
2019-02-06T04:50:15.752Z,4.33
2019-02-06T04:52:44.504Z,3.90
2019-02-06T04:55:19.783Z,4.30
2019-02-06T04:57:49.046Z,4.53
2019-02-06T05:00:23.529Z,4.30
2019-02-06T05:02:52.396Z,4.30
2019-02-06T05:05:21.747Z,4.53
2019-02-06T05:07:51.386Z,3.80
2019-02-06T05:10:20.346Z,4.33
2019-02-06T05:12:49.302Z,4.40
2019-02-06T05:15:18.257Z,4.07
2019-02-06T05:17:47.001Z,4.07
2019-02-06T05:20:26.961Z,4.10
2019-02-06T05:22:55.716Z,3.00
2019-02-06T05:25:24.708Z,3.67
2019-02-06T05:27:53.391Z,3.37
2019-02-06T05:30:22.090Z,4.20
2019-02-06T05:32:50.763Z,3.37
2019-02-06T05:35:19.434Z,3.30
2019-02-06T05:37:48.172Z,2.70
2019-02-06T05:40:16.834Z,2.37
2019-02-06T05:42:46.030Z,2.33
2019-02-06T05:45:16.000Z,2.90
2019-02-06T05:47:44.659Z,2.83
2019-02-06T05:50:18.393Z,7.27
2019-02-06T05:52:47.407Z,3.30
2019-02-06T05:55:18.082Z,2.60
2019-02-06T05:57:47.825Z,2.07
2019-02-06T06:00:26.124Z,7.23
2019-02-06T06:02:54.833Z,2.43
2019-02-06T06:05:23.485Z,2.97
2019-02-06T06:07:52.218Z,1.90
2019-02-06T06:10:21.371Z,2.07
2019-02-06T06:12:50.179Z,2.10
2019-02-06T06:15:20.991Z,1.90
2019-02-06T06:17:50.145Z,2.30
2019-02-06T06:20:20.309Z,3.83
2019-02-06T06:22:49.519Z,2.60
2019-02-06T06:25:20.160Z,2.97
2019-02-06T06:27:49.399Z,2.07
2019-02-06T06:30:20.075Z,3.90
2019-02-06T06:32:48.982Z,3.77
2019-02-06T06:35:18.281Z,3.50
2019-02-06T06:37:57.755Z,3.20
2019-02-06T06:40:22.530Z,2.93
2019-02-06T06:42:51.899Z,2.43
2019-02-06T06:45:23.237Z,4.60
2019-02-06T06:47:52.254Z,5.00
2019-02-06T06:50:23.339Z,4.53
2019-02-06T06:52:53.475Z,2.83
2019-02-06T06:55:22.768Z,3.30
2019-02-06T06:57:51.503Z,3.63
2019-02-06T07:00:28.609Z,2.40
2019-02-06T07:02:57.328Z,7.97
2019-02-06T07:05:26.038Z,3.80
2019-02-06T07:07:55.611Z,4.43
2019-02-06T07:10:24.810Z,3.70
2019-02-06T07:12:53.520Z,2.57
2019-02-06T07:15:27.988Z,2.73
2019-02-06T07:17:56.766Z,3.37
2019-02-06T07:20:25.761Z,2.90
2019-02-06T07:22:54.631Z,2.80
2019-02-06T07:25:23.484Z,3.63
2019-02-06T07:27:52.171Z,4.07
2019-02-06T07:30:32.780Z,3.03
2019-02-06T07:33:01.482Z,3.80
2019-02-06T07:35:32.644Z,3.00
2019-02-06T07:38:02.025Z,2.90
2019-02-06T07:40:30.797Z,3.70
2019-02-06T07:43:01.181Z,3.97
2019-02-06T07:45:29.822Z,4.53
2019-02-06T07:47:58.718Z,5.17
2019-02-06T07:50:32.214Z,3.90
2019-02-06T07:53:01.436Z,5.27
2019-02-06T07:55:30.305Z,5.50
2019-02-06T07:57:59.490Z,5.43
2019-02-06T08:00:28.211Z,3.83
2019-02-06T08:02:58.286Z,5.20
2019-02-06T08:05:27.216Z,4.63
2019-02-06T08:07:58.125Z,4.40
2019-02-06T08:10:32.096Z,5.43
2019-02-06T08:13:01.547Z,5.10
2019-02-06T08:15:31.432Z,4.37
2019-02-06T08:18:05.891Z,4.27
2019-02-06T08:20:36.874Z,4.37
2019-02-06T08:23:05.544Z,3.80
2019-02-06T08:25:34.256Z,4.40
2019-02-06T08:28:03.346Z,4.50
2019-02-06T08:30:40.340Z,4.50
2019-02-06T08:33:09.066Z,4.70
2019-02-06T08:35:37.935Z,4.90
2019-02-06T08:38:06.776Z,5.70
2019-02-06T08:40:35.673Z,4.60
2019-02-06T08:43:04.631Z,4.23
2019-02-06T08:45:33.285Z,4.50
2019-02-06T08:48:02.803Z,4.83
2019-02-06T08:50:31.809Z,5.33
2019-02-06T08:53:00.976Z,5.33
2019-02-06T08:55:33.701Z,5.03
2019-02-06T08:58:03.811Z,5.57
2019-02-06T09:00:35.053Z,3.70
2019-02-06T09:03:04.936Z,4.47
2019-02-06T09:05:34.319Z,5.20
2019-02-06T09:08:05.058Z,7.93
2019-02-06T09:10:34.141Z,4.77
2019-02-06T09:13:03.746Z,5.20
2019-02-06T09:15:32.517Z,4.50
2019-02-06T09:18:01.408Z,3.97
2019-02-06T09:20:31.979Z,4.30
2019-02-06T09:23:00.911Z,4.20
2019-02-06T09:25:30.209Z,4.77
2019-02-06T09:27:59.235Z,4.27
2019-02-06T09:30:30.816Z,5.17
2019-02-06T09:32:59.932Z,6.37
2019-02-06T09:35:28.661Z,5.00
2019-02-06T09:37:57.550Z,13.07
2019-02-06T09:40:28.867Z,14.07
2019-02-06T09:42:57.688Z,4.70
2019-02-06T09:45:26.568Z,5.47
2019-02-06T09:47:55.249Z,5.10
2019-02-06T09:50:32.889Z,4.90
2019-02-06T09:53:02.727Z,4.33
2019-02-06T09:55:31.585Z,3.90
2019-02-06T09:58:00.559Z,4.37
2019-02-06T10:00:34.626Z,4.33
2019-02-06T10:03:04.544Z,4.00
2019-02-06T10:05:33.800Z,4.10
2019-02-06T10:08:02.505Z,3.60
2019-02-06T10:10:31.439Z,3.50
2019-02-06T10:13:00.115Z,11.03
2019-02-06T10:15:34.541Z,6.33
2019-02-06T10:18:24.784Z,7.93
2019-02-06T10:20:53.588Z,4.13
2019-02-06T10:23:22.375Z,3.60
2019-02-06T10:25:53.571Z,3.97
2019-02-06T10:28:24.134Z,6.30
2019-02-06T10:30:51.993Z,5.03
2019-02-06T10:33:20.686Z,4.17
2019-02-06T10:35:51.956Z,29.70
2019-02-06T10:38:19.964Z,2.97
2019-02-06T10:40:48.676Z,6.67
2019-02-06T10:43:17.728Z,4.13
2019-02-06T10:45:46.634Z,2.93
2019-02-06T10:48:15.369Z,3.40
2019-02-06T10:50:46.951Z,4.00
2019-02-06T10:53:16.421Z,3.30
2019-02-06T10:55:45.203Z,8.23
2019-02-06T10:58:14.228Z,3.63
2019-02-06T11:00:49.286Z,3.83
2019-02-06T11:03:18.104Z,4.30
2019-02-06T11:05:47.321Z,5.37
2019-02-06T11:08:16.096Z,3.30
2019-02-06T11:10:44.829Z,3.10
2019-02-06T11:13:14.127Z,2.87
2019-02-06T11:15:43.004Z,3.03
2019-02-06T11:18:12.028Z,4.00
2019-02-06T11:20:41.123Z,4.00
2019-02-06T11:23:10.477Z,3.10
2019-02-06T11:25:39.154Z,7.47
2019-02-06T11:28:08.266Z,4.40
2019-02-06T11:30:42.215Z,6.13
2019-02-06T11:33:11.071Z,6.23
2019-02-06T11:35:39.824Z,3.77
2019-02-06T11:38:09.048Z,5.07
2019-02-06T11:40:37.741Z,5.00
2019-02-06T11:43:06.831Z,6.67
2019-02-06T11:45:36.612Z,6.80
2019-02-06T11:48:06.375Z,5.50
2019-02-06T11:50:40.127Z,4.70
2019-02-06T11:53:11.075Z,5.37
2019-02-06T11:55:43.081Z,4.27
2019-02-06T11:58:11.829Z,6.47
2019-02-06T12:00:55.608Z,4.97
2019-02-06T12:03:24.369Z,4.20
2019-02-06T12:05:53.152Z,4.33
2019-02-06T12:08:22.637Z,3.90
2019-02-06T12:10:51.479Z,4.20
2019-02-06T12:13:20.282Z,5.60
2019-02-06T12:15:49.049Z,5.67
2019-02-06T12:18:19.204Z,7.00
2019-02-06T12:20:48.016Z,5.73
2019-02-06T12:23:16.694Z,6.73
2019-02-06T12:25:45.893Z,5.23
2019-02-06T12:28:14.721Z,5.50
2019-02-06T12:30:45.240Z,4.90
2019-02-06T12:33:14.041Z,5.00
2019-02-06T12:35:42.768Z,5.10
2019-02-06T12:38:11.563Z,6.20
2019-02-06T12:40:40.214Z,6.20
2019-02-06T12:43:10.494Z,6.10
2019-02-06T12:45:39.709Z,5.30
2019-02-06T12:48:09.095Z,6.30
2019-02-06T12:50:37.988Z,8.70
2019-02-06T12:53:07.047Z,7.00
2019-02-06T12:55:38.573Z,6.23
2019-02-06T12:58:08.862Z,6.83
2019-02-06T13:00:40.518Z,13.47
2019-02-06T13:03:09.655Z,7.57
2019-02-06T13:05:38.627Z,6.57
2019-02-06T13:08:11.062Z,8.07
2019-02-06T13:10:40.718Z,6.33
2019-02-06T13:13:10.719Z,6.67
2019-02-06T13:15:39.447Z,6.57
2019-02-06T13:18:09.019Z,8.43
2019-02-06T13:20:37.993Z,6.13
2019-02-06T13:23:07.076Z,7.07
2019-02-06T13:25:35.989Z,9.93
2019-02-06T13:28:05.607Z,7.97
2019-02-06T13:30:36.664Z,11.90
2019-02-06T13:33:07.413Z,5.90
2019-02-06T13:35:37.546Z,6.63
2019-02-06T13:38:06.440Z,6.37
2019-02-06T13:40:45.167Z,6.43
2019-02-06T13:43:06.220Z,13.53
2019-02-06T13:45:43.104Z,11.00
2019-02-06T13:48:12.786Z,5.70
2019-02-06T13:50:41.703Z,5.07
2019-02-06T13:53:10.474Z,5.77
2019-02-06T13:55:39.481Z,7.97
2019-02-06T13:58:19.149Z,6.83
2019-02-06T14:00:41.383Z,7.60
2019-02-06T14:03:10.684Z,7.67
2019-02-06T14:05:40.265Z,7.43
2019-02-06T14:08:11.871Z,7.03
2019-02-06T14:10:40.617Z,8.90
2019-02-06T14:13:09.279Z,7.13
2019-02-06T14:15:40.935Z,7.53
2019-02-06T14:18:10.300Z,8.27
2019-02-06T14:20:40.054Z,8.60
2019-02-06T14:23:14.520Z,11.73
2019-02-06T14:25:49.347Z,10.83
2019-02-06T14:28:29.801Z,11.27
2019-02-06T14:31:07.078Z,12.50
2019-02-06T14:33:41.429Z,8.13
2019-02-06T14:36:25.323Z,8.57
2019-02-06T14:39:31.462Z,11.20
2019-02-06T14:42:14.696Z,9.67
2019-02-06T14:45:02.638Z,18.17
2019-02-06T14:47:46.648Z,19.33
2019-02-06T14:50:36.310Z,10.97
2019-02-06T14:53:19.287Z,12.13
2019-02-06T14:55:56.570Z,10.43
2019-02-06T14:58:50.672Z,12.43
2019-02-06T15:01:34.013Z,22.23
2019-02-06T15:04:25.274Z,11.90
2019-02-06T15:07:15.528Z,13.00
2019-02-06T15:09:56.043Z,16.47
2019-02-06T15:12:51.478Z,16.87
2019-02-06T15:15:31.906Z,15.13
2019-02-06T15:18:30.893Z,14.10
2019-02-06T15:21:23.013Z,17.95
2019-02-06T15:24:00.998Z,16.97
2019-02-06T15:26:32.606Z,12.03
2019-02-06T15:29:23.008Z,12.57
2019-02-06T15:32:00.332Z,14.77
2019-02-06T15:34:44.215Z,15.07
2019-02-06T15:37:36.989Z,16.37
2019-02-06T15:40:17.328Z,12.07
2019-02-06T15:43:03.204Z,11.37
2019-02-06T15:45:40.566Z,11.27
2019-02-06T15:48:15.131Z,13.07
2019-02-06T15:50:52.635Z,11.40
2019-02-06T15:53:24.270Z,12.40
2019-02-06T15:56:12.379Z,12.07
2019-02-06T15:59:10.684Z,11.17
2019-02-06T16:01:57.249Z,13.13
2019-02-06T16:04:58.571Z,15.13
2019-02-06T16:07:46.579Z,13.47
2019-02-06T16:10:20.973Z,13.67
2019-02-06T16:12:58.558Z,14.77
2019-02-06T16:15:39.108Z,15.27
2019-02-06T16:18:28.574Z,14.93
2019-02-06T16:21:02.976Z,16.87
2019-02-06T16:23:51.436Z,12.97
2019-02-06T16:26:34.913Z,10.97
2019-02-06T16:29:09.113Z,10.93
2019-02-06T16:32:02.504Z,12.83
2019-02-06T16:35:01.175Z,10.83
2019-02-06T16:37:32.762Z,11.60
2019-02-06T16:40:21.020Z,11.07
2019-02-06T16:43:24.510Z,11.50
2019-02-06T16:46:15.071Z,8.63
2019-02-06T16:48:52.131Z,5.97
2019-02-06T16:51:32.699Z,7.23
2019-02-06T16:54:20.745Z,6.50
2019-02-06T16:56:52.350Z,13.47
2019-02-06T16:59:29.996Z,10.53
2019-02-06T17:02:10.404Z,8.97
2019-02-06T17:04:56.851Z,14.13
2019-02-06T17:07:31.522Z,7.93
2019-02-06T17:10:27.372Z,6.70
2019-02-06T17:13:04.808Z,6.27
2019-02-06T17:16:06.284Z,6.20
2019-02-06T17:18:37.910Z,7.77
2019-02-06T17:21:18.777Z,7.43
2019-02-06T17:23:56.197Z,8.43
2019-02-06T17:26:45.587Z,7.43
2019-02-06T17:29:26.017Z,6.03
2019-02-06T17:32:03.381Z,6.57
2019-02-06T17:34:47.045Z,6.57
2019-02-06T17:37:21.458Z,7.13
2019-02-06T17:39:59.041Z,6.53
2019-02-06T17:42:39.618Z,6.10
2019-02-06T17:45:23.319Z,4.97
2019-02-06T17:48:01.104Z,5.20
2019-02-06T17:50:41.332Z,4.93
2019-02-06T17:53:25.438Z,4.90
2019-02-06T17:55:54.110Z,5.87
2019-02-06T17:58:22.791Z,5.13
2019-02-06T18:00:54.477Z,5.13
2019-02-06T18:03:23.656Z,4.77
2019-02-06T18:05:52.463Z,4.70
2019-02-06T18:08:21.157Z,4.00
2019-02-06T18:10:49.871Z,3.20
2019-02-06T18:13:18.545Z,2.97
2019-02-06T18:15:47.315Z,3.20
2019-02-06T18:18:15.970Z,4.17
2019-02-06T18:20:45.019Z,3.10
2019-02-06T18:23:13.675Z,3.97
2019-02-06T18:25:42.883Z,3.37
2019-02-06T18:28:12.029Z,3.60
2019-02-06T18:30:41.079Z,3.40
2019-02-06T18:33:09.843Z,2.77
2019-02-06T18:35:39.756Z,3.27
2019-02-06T18:38:08.940Z,4.00
2019-02-06T18:40:39.877Z,4.07
2019-02-06T18:43:08.593Z,3.83
2019-02-06T18:45:37.271Z,4.80
2019-02-06T18:48:08.588Z,4.67
2019-02-06T18:50:39.486Z,4.50
2019-02-06T18:53:09.147Z,3.90
2019-02-06T18:55:38.101Z,4.13
2019-02-06T18:58:08.678Z,4.67
2019-02-06T19:00:42.948Z,2.73
2019-02-06T19:03:20.379Z,2.80
2019-02-06T19:05:49.512Z,3.20
2019-02-06T19:08:18.235Z,3.60
2019-02-06T19:10:47.384Z,3.47
2019-02-06T19:13:16.344Z,3.00
2019-02-06T19:15:55.915Z,3.13
2019-02-06T19:18:15.407Z,2.00
2019-02-06T19:20:44.111Z,2.20
2019-02-06T19:23:12.747Z,2.20
2019-02-06T19:25:41.526Z,2.10
2019-02-06T19:28:10.207Z,2.23
2019-02-06T19:30:43.997Z,2.37
2019-02-06T19:33:12.692Z,2.20
2019-02-06T19:35:41.461Z,2.23
2019-02-06T19:38:10.107Z,2.43
2019-02-06T19:40:38.829Z,3.53
2019-02-06T19:43:07.503Z,3.67
2019-02-06T19:45:36.748Z,4.30
2019-02-06T19:48:15.702Z,4.73
2019-02-06T19:50:41.914Z,3.63
2019-02-06T19:53:10.579Z,3.20
2019-02-06T19:55:39.333Z,2.67
2019-02-06T19:58:09.294Z,3.00
2019-02-06T20:00:38.053Z,3.13
2019-02-06T20:03:08.448Z,2.50
2019-02-06T20:05:37.392Z,2.47
2019-02-06T20:08:07.599Z,2.60
2019-02-06T20:10:39.080Z,3.17
2019-02-06T20:13:12.330Z,2.77
2019-02-06T20:15:38.234Z,3.20
2019-02-06T20:18:07.004Z,3.20
2019-02-06T20:20:36.446Z,3.97
2019-02-06T20:23:05.113Z,3.60
2019-02-06T20:25:33.770Z,4.07
2019-02-06T20:28:02.496Z,3.67
2019-02-06T20:30:32.366Z,3.50
2019-02-06T20:33:01.067Z,3.43
2019-02-06T20:35:29.822Z,3.40
2019-02-06T20:37:58.780Z,2.93
2019-02-06T20:40:30.000Z,3.70
2019-02-06T20:42:58.774Z,3.47
2019-02-06T20:45:27.541Z,3.73
2019-02-06T20:47:56.319Z,3.40
2019-02-06T20:50:27.517Z,3.63
2019-02-06T20:52:56.463Z,3.80
2019-02-06T20:55:25.173Z,3.10
2019-02-06T20:57:53.841Z,3.00
2019-02-06T21:00:25.322Z,2.10
2019-02-06T21:02:53.970Z,3.03
2019-02-06T21:05:22.631Z,2.80
2019-02-06T21:07:51.300Z,2.83
2019-02-06T21:10:22.811Z,3.50
2019-02-06T21:12:51.482Z,4.17
2019-02-06T21:15:20.263Z,3.50
2019-02-06T21:17:48.946Z,3.13
2019-02-06T21:20:19.713Z,2.73
2019-02-06T21:22:48.375Z,2.73
2019-02-06T21:25:19.225Z,2.00
2019-02-06T21:27:48.488Z,2.13
2019-02-06T21:30:19.354Z,2.37
2019-02-06T21:32:48.015Z,2.73
2019-02-06T21:35:16.765Z,2.40
2019-02-06T21:37:45.421Z,2.17
2019-02-06T21:40:20.234Z,2.27
2019-02-06T21:42:48.309Z,2.23
2019-02-06T21:45:17.386Z,2.37
2019-02-06T21:47:46.035Z,2.70
2019-02-06T21:50:19.662Z,2.60
2019-02-06T21:52:48.326Z,2.80
2019-02-06T21:55:19.764Z,1.90
2019-02-06T21:57:48.448Z,2.00
2019-02-06T22:00:31.781Z,2.10
2019-02-06T22:03:00.548Z,1.80
2019-02-06T22:05:29.255Z,1.87
2019-02-06T22:07:57.996Z,2.07
2019-02-06T22:10:26.626Z,2.13
2019-02-06T22:12:55.271Z,2.57
2019-02-06T22:15:29.255Z,2.30
2019-02-06T22:17:57.909Z,2.57
2019-02-06T22:20:27.321Z,2.30
2019-02-06T22:22:55.992Z,2.10
2019-02-06T22:25:25.225Z,2.07
2019-02-06T22:27:53.895Z,2.00
2019-02-06T22:30:24.461Z,2.30
2019-02-06T22:32:53.115Z,2.10
2019-02-06T22:35:22.460Z,2.50
2019-02-06T22:37:51.116Z,2.87
2019-02-06T22:40:21.683Z,2.83
2019-02-06T22:42:50.855Z,2.77
2019-02-06T22:45:21.855Z,2.33
2019-02-06T22:47:51.221Z,2.60
2019-02-06T22:50:24.979Z,2.47
2019-02-06T22:52:53.755Z,3.10
2019-02-06T22:55:22.430Z,3.20
2019-02-06T22:57:51.073Z,2.20
2019-02-06T23:00:44.630Z,2.17
2019-02-06T23:03:13.387Z,2.60
2019-02-06T23:05:42.052Z,2.00
2019-02-06T23:08:10.935Z,2.30
2019-02-06T23:10:39.683Z,3.50
2019-02-06T23:13:08.846Z,3.97
2019-02-06T23:15:37.773Z,4.00
2019-02-06T23:18:06.531Z,4.10
2019-02-06T23:20:35.210Z,4.00
2019-02-06T23:23:04.091Z,3.87
2019-02-06T23:25:32.761Z,3.90
2019-02-06T23:28:01.456Z,3.43
2019-02-06T23:30:30.392Z,3.70
2019-02-06T23:32:59.045Z,3.00
2019-02-06T23:35:27.715Z,2.70
2019-02-06T23:37:56.377Z,2.20
2019-02-06T23:40:25.077Z,2.03
2019-02-06T23:42:53.729Z,2.30
2019-02-06T23:45:22.773Z,2.40
2019-02-06T23:47:51.453Z,3.30
2019-02-06T23:50:20.112Z,3.20
2019-02-06T23:52:48.788Z,2.33
2019-02-06T23:55:17.456Z,2.23
2019-02-06T23:57:46.117Z,2.60
